Météo Nord-Pas-de-Calais   La météo au plus près de chez vous

Station météorologique

Observations météo à Bouelles (76130)

76130001 232 m Dernier relevé à 04:00
12.4°C
Humidité 85 % Vent 8.3 km/h

Journée consultée

Dimanche 6 Septembre 2026

Synthèse de la journée

Périodes de référence en UTC

Température maximale

21.1°C

à 16:00

06h 06h

Température minimale

12.2°C

à 03:18

18h 18h

Rafale maximale

16 km/h

à 04:00

00h 00h

Précipitations

0 mm

Cumul quotidien

06h 06h

Graphiques de la journée

Heure locale Réduire

Données détaillées

Relevés météo

Pas de 6 minutes Afficher les relevés infra-horaires
Relevés météo détaillés à Bouelles pour le Dimanche 6 Septembre 2026
Heure Température °C Point de rosée °C Humidité % Vent moyen (raf.), km/h Précipitations mm
04:00 12.4 °C 9.8 °C 84 % 9 km/h (15 km/h) 0 mm0 mm
03:54 12.3 °C 9.8 °C 85 % 9 km/h (12 km/h) 0 mm0 mm
03:48 12.2 °C 9.8 °C 85 % 9 km/h (12 km/h) 0 mm0 mm
03:42 12.2 °C 9.9 °C 86 % 9 km/h (13 km/h) 0 mm0 mm
03:36 12.2 °C 9.9 °C 86 % 8 km/h (13 km/h) 0 mm0 mm
03:30 12.3 °C 10 °C 86 % 8 km/h (12 km/h) 0 mm0 mm
03:24 12.3 °C 10 °C 86 % 8 km/h (12 km/h) 0 mm0 mm
03:18 12.2 °C 9.8 °C 85 % 9 km/h (12 km/h) 0 mm0 mm
03:12 12.3 °C 9.8 °C 85 % 9 km/h (13 km/h) 0 mm0 mm
03:06 12.3 °C 9.8 °C 85 % 8 km/h (12 km/h) 0 mm0 mm
03:00 12.4 °C 9.9 °C 85 % 8 km/h (13 km/h) 0 mm0 mm
02:54 12.6 °C 10 °C 84 % 10 km/h (14 km/h) 0 mm0 mm
02:48 12.6 °C 10 °C 84 % 10 km/h (14 km/h) 0 mm0 mm
02:42 12.7 °C 10.1 °C 84 % 10 km/h (14 km/h) 0 mm0 mm
02:36 12.8 °C 10.2 °C 84 % 10 km/h (15 km/h) 0 mm0 mm
02:30 12.8 °C 10.2 °C 84 % 10 km/h (14 km/h) 0 mm0 mm
02:24 12.8 °C 10.2 °C 84 % 10 km/h (14 km/h) 0 mm0 mm
02:18 12.8 °C 10.2 °C 84 % 10 km/h (14 km/h) 0 mm0 mm
02:12 12.9 °C 10.3 °C 84 % 10 km/h (14 km/h) 0 mm0 mm
02:06 12.9 °C 10.3 °C 84 % 10 km/h (14 km/h) 0 mm0 mm
02:00 12.9 °C 10.4 °C 85 % 10 km/h (15 km/h) 0 mm0 mm
01:54 12.9 °C 10.4 °C 85 % 10 km/h (15 km/h) 0 mm0 mm
01:48 12.9 °C 10.6 °C 86 % 10 km/h (14 km/h) 0 mm0 mm
01:42 12.8 °C 10.3 °C 85 % 10 km/h (13 km/h) 0 mm0 mm
01:36 13 °C 10.5 °C 85 % 10 km/h (14 km/h) 0 mm0 mm
01:30 13 °C 10.5 °C 85 % 12 km/h (15 km/h) 0 mm0 mm
01:24 13 °C 10.5 °C 85 % 11 km/h (15 km/h) 0 mm0 mm
01:18 13.1 °C 10.6 °C 85 % 11 km/h (16 km/h) 0 mm0 mm
01:12 13.1 °C 10.6 °C 85 % 11 km/h (16 km/h) 0 mm0 mm
01:06 13 °C 10.7 °C 86 % 12 km/h (15 km/h) 0 mm0 mm
01:00 12.9 °C 10.6 °C 86 % 11 km/h (15 km/h) 0 mm0 mm
00:54 13 °C 10.7 °C 86 % 11 km/h (16 km/h) 0 mm0 mm
00:48 13 °C 10.7 °C 86 % 12 km/h (16 km/h) 0 mm0 mm
00:42 13 °C 10.7 °C 86 % 12 km/h (16 km/h) 0 mm0 mm
00:36 13.1 °C 10.8 °C 86 % 12 km/h (17 km/h) 0 mm0 mm
00:30 12.9 °C 10.6 °C 86 % 12 km/h (16 km/h) 0 mm0 mm
00:24 13 °C 10.7 °C 86 % 12 km/h (17 km/h) 0 mm0 mm
00:18 13.1 °C 11 °C 87 % 13 km/h (17 km/h) 0 mm0 mm
00:12 13 °C 10.9 °C 87 % 13 km/h (19 km/h) 0 mm0 mm
00:06 13 °C 10.9 °C 87 % 13 km/h (19 km/h) 0 mm0 mm
00:00 12.8 °C 10.9 °C 88 % 11 km/h (17 km/h) 0 mm0 mm

Données via Météo-France

Relevés météo à Bouelles

Cette page rassemble les observations de la station de Bouelles : température, humidité, vent, précipitations et pression atmosphérique. Les graphiques facilitent le suivi de la journée, tandis que le tableau donne accès aux mesures horaires et infra-horaires disponibles.

Pour replacer ces mesures dans leur contexte, consultez la climatologie de Bouelles ainsi que ses normales et records. Retrouvez aussi la carte des observations météo en temps réel.